Latest Weather Observations for Maria Island

IDT60801

Issued at 2:32 pm EST Saturday 1 October 2016 (issued every 30 minutes, with the page automatically refreshed every 10 minutes)

About weather observations | Map of weather stations | Latest weather observations for TAS | Other Formats
Station Details ID: 092124 Name: MARIA ISLAND (POINT LESUEUR) Lat: -42.66 Lon: 148.02 Height: 28.0 m
Data from the previous 72 hours. | See also: Recent months at Maria Island
Date/Time
EST
Temp
°C
App
Temp
°C
Dew
Point
°C
Rel
Hum
%
Delta-T
°C
Wind Press
QNH
hPa
Press
MSL
hPa
Rain since
9am
mm
Dir  Spd
km/h
Gust
km/h
Spd
kts
Gust
kts
01/02:30pm 14.9 - - - - N 22 26 12 14 991.6 991.6 0.0
01/02:00pm 13.8 - - - - NNE 15 19 8 10 991.9 991.9 0.0
01/01:30pm 13.4 - - - - N 15 17 8 9 992.2 992.2 0.0
01/01:00pm 12.8 - - - - N 22 24 12 13 992.2 992.2 0.0
01/12:30pm 12.3 - - - - N 22 24 12 13 992.4 992.4 0.0
01/12:00pm 12.2 - - - - N 26 30 14 16 992.6 992.6 0.0
01/11:30am 12.0 - - - - N 24 30 13 16 992.7 992.7 0.0
01/11:00am 11.8 - - - - N 24 28 13 15 993.1 993.1 0.0
01/10:30am 11.7 - - - - N 24 28 13 15 993.2 993.2 0.0
01/10:00am 11.8 - - - - N 24 26 13 14 993.6 993.6 0.0
01/09:30am 11.7 - - - - N 20 24 11 13 993.8 993.8 0.0
01/09:00am 12.3 - - - - N 26 30 14 16 993.9 993.9 0.2
01/08:30am 12.1 - - - - N 22 26 12 14 993.9 993.9 0.2
01/08:00am 12.3 - - - - NNE 20 24 11 13 994.0 994.0 0.2
01/07:30am 11.7 - - - - N 26 32 14 17 994.0 994.0 0.2
01/07:00am 11.3 - - - - NNE 24 30 13 16 993.9 993.9 0.2
01/06:30am 10.9 - - - - NNE 20 24 11 13 993.9 993.9 0.2
01/06:00am 10.0 - - - - NNE 19 22 10 12 993.7 993.7 0.2
01/05:30am 9.8 - - - - NNE 19 24 10 13 993.5 993.5 0.2
01/05:00am 9.9 - - - - N 20 24 11 13 993.2 993.2 0.2
01/04:30am 9.3 - - - - NNE 15 17 8 9 993.1 993.1 0.2
01/04:00am 9.9 - - - - N 22 26 12 14 992.8 992.8 0.2
01/03:30am 10.1 - - - - NNW 32 39 17 21 992.5 992.5 0.2
01/03:00am 10.3 - - - - N 37 44 20 24 992.4 992.4 0.2
01/02:30am 10.2 - - - - N 28 33 15 18 992.7 992.7 0.2
01/02:00am 10.0 - - - - N 13 17 7 9 993.3 993.3 0.2
01/01:30am 10.0 - - - - N 15 20 8 11 993.6 993.6 0.2
01/01:00am 10.4 - - - - N 20 26 11 14 993.8 993.8 0.2
01/12:30am 10.3 - - - - N 26 32 14 17 993.8 993.8 0.2
01/12:00am 10.5 - - - - N 24 32 13 17 993.7 993.7 0.2
 
Date/Time
EST
Temp
°C
App
Temp
°C
Dew
Point
°C
Rel
Hum
%
Delta-T
°C
Wind Press
QNH
hPa
Press
MSL
hPa
Rain since
9am
mm
Dir  Spd
km/h
Gust
km/h
Spd
kts
Gust
kts
30/11:30pm 10.7 - - - - N 22 28 12 15 993.8 993.8 0.2
30/11:00pm 11.0 - - - - N 26 32 14 17 993.6 993.6 0.2
30/10:30pm 11.4 - - - - N 24 28 13 15 993.7 993.7 0.2
30/10:00pm 11.8 - - - - N 26 30 14 16 993.8 993.8 0.2
30/09:30pm 11.8 - - - - N 22 30 12 16 993.7 993.7 0.2
30/09:00pm 11.7 - - - - NNE 15 20 8 11 993.6 993.6 0.2
30/08:30pm 11.9 - - - - N 15 20 8 11 993.3 993.3 0.2
30/08:00pm 12.1 - - - - NNW 20 24 11 13 993.0 993.0 0.2
30/07:30pm 12.2 - - - - NNW 20 24 11 13 992.6 992.6 0.2
30/07:00pm 12.6 - - - - N 20 24 11 13 992.2 992.2 0.2
30/06:30pm 12.9 - - - - N 20 26 11 14 991.6 991.6 0.2
30/06:00pm 13.6 - - - - N 32 37 17 20 990.7 990.7 0.2
30/05:30pm 13.9 - - - - NNE 24 32 13 17 990.3 990.3 0.2
30/05:00pm 14.2 - - - - N 24 28 13 15 989.9 989.9 0.2
30/04:30pm 14.5 - - - - N 30 35 16 19 989.3 989.3 0.2
30/04:00pm 14.7 - - - - N 30 37 16 20 988.9 988.9 0.2
30/03:30pm 14.7 - - - - N 26 32 14 17 988.5 988.5 0.2
30/03:00pm 14.5 - - - - N 30 37 16 20 988.3 988.3 0.2
30/02:30pm 14.7 - - - - N 37 44 20 24 987.9 987.9 0.2
30/02:00pm 14.5 - - - - N 43 56 23 30 987.6 987.6 0.2
30/01:30pm 14.1 - - - - N 43 52 23 28 987.2 987.2 0.2
30/01:00pm 13.2 - - - - N 33 50 18 27 987.4 987.4 0.2
30/12:30pm 12.7 - - - - N 37 41 20 22 987.1 987.1 0.2
30/12:00pm 12.3 - - - - N 43 50 23 27 986.6 986.6 0.2
30/11:38am 12.7 - - - - N 30 43 16 23 985.9 985.9 0.2
30/11:30am 12.8 - - - - NE 13 24 7 13 986.2 986.2 0.2
30/11:00am 12.4 - - - - NE 26 32 14 17 986.1 986.1 0.2
30/10:36am 13.3 - - - - ESE 32 46 17 25 985.5 985.5 0.2
30/10:30am 13.2 - - - - ESE 39 50 21 27 986.0 986.0 0.2
30/10:16am 13.0 - - - - ESE 41 61 22 33 986.5 986.5 0.2
30/10:00am 13.4 - - - - ESE 44 57 24 31 986.5 986.5 0.2
30/09:33am 13.4 - - - - ESE 46 67 25 36 986.9 986.9 0.2
30/09:30am 13.4 - - - - ESE 44 59 24 32 987.0 987.0 0.2
30/09:00am 13.4 - - - - E 39 61 21 33 987.4 987.4 36.8
30/08:31am 13.3 - - - - E 43 61 23 33 987.3 987.3 36.8
30/08:30am 13.3 - - - - E 43 57 23 31 987.4 987.4 36.8
30/08:04am 13.2 - - - - E 48 67 26 36 987.1 987.1 36.8
30/08:00am 13.1 - - - - E 48 61 26 33 987.2 987.2 36.8
30/07:30am 12.7 - - - - ESE 52 78 28 42 987.3 987.3 36.6
30/07:00am 12.1 - - - - ESE 52 72 28 39 988.3 988.3 35.0
30/06:40am 12.2 - - - - SE 41 61 22 33 988.8 988.8 34.0
30/06:30am 12.2 - - - - SE 41 54 22 29 989.0 989.0 33.2
30/06:00am 12.4 - - - - ESE 44 65 24 35 989.5 989.5 30.4
30/05:32am 12.4 - - - - E 37 57 20 31 989.5 989.5 29.6
30/05:30am 12.4 - - - - E 35 50 19 27 989.8 989.8 29.6
30/05:04am 12.6 - - - - E 37 57 20 31 989.8 989.8 24.4
30/05:00am 12.6 - - - - E 39 52 21 28 989.9 989.9 24.2
30/04:38am 12.3 - - - - E 28 48 15 26 989.9 989.9 23.4
30/04:30am 12.1 - - - - E 26 41 14 22 990.2 990.2 22.6
30/04:00am 12.0 - - - - ENE 28 39 15 21 990.5 990.5 20.4
30/03:43am 12.3 - - - - E 35 54 19 29 990.3 990.3 20.2
30/03:30am 12.8 - - - - ENE 39 56 21 30 989.9 989.9 20.0
30/03:00am 13.1 - - - - ENE 43 67 23 36 990.5 990.5 19.6
30/02:47am 12.9 - - - - ENE 39 57 21 31 990.3 990.3 19.4
30/02:30am 12.8 - - - - ENE 43 57 23 31 990.7 990.7 19.2
30/02:00am 12.9 - - - - ENE 41 67 22 36 991.2 991.2 13.8
30/01:30am 13.5 - - - - ENE 44 69 24 37 991.3 991.3 12.6
30/01:14am 13.5 - - - - ENE 37 59 20 32 991.7 991.7 12.4
30/01:00am 13.6 - - - - ENE 28 39 15 21 992.4 992.4 12.0
30/12:32am 13.4 - - - - ENE 28 54 15 29 992.3 992.3 12.0
30/12:30am 13.3 - - - - ENE 30 41 16 22 992.4 992.4 12.0
30/12:00am 13.4 - - - - ENE 41 67 22 36 992.1 992.1 11.8
 
Date/Time
EST
Temp
°C
App
Temp
°C
Dew
Point
°C
Rel
Hum
%
Delta-T
°C
Wind Press
QNH
hPa
Press
MSL
hPa
Rain since
9am
mm
Dir  Spd
km/h
Gust
km/h
Spd
kts
Gust
kts
29/11:30pm 13.0 - - - - ENE 39 59 21 32 992.1 992.1 10.8
29/11:06pm 12.7 - - - - ENE 32 50 17 27 992.6 992.6 10.4
29/11:00pm 12.7 - - - - ENE 33 50 18 27 992.9 992.9 9.8
29/10:30pm 12.9 - - - - ENE 37 57 20 31 993.1 993.1 7.4
29/10:00pm 13.1 - - - - ENE 37 59 20 32 993.6 993.6 6.0
29/09:40pm 12.9 - - - - ENE 35 56 19 30 993.6 993.6 5.0
29/09:30pm 13.0 - - - - ENE 39 54 21 29 993.5 993.5 4.6
29/09:00pm 13.0 - - - - ENE 44 67 24 36 993.8 993.8 3.8
29/08:30pm 13.1 - - - - ENE 46 65 25 35 993.6 993.6 3.0
29/08:00pm 13.3 - - - - ENE 48 70 26 38 993.2 993.2 3.0
29/07:30pm 13.1 - - - - ENE 46 69 25 37 993.1 993.1 3.0
29/07:00pm 12.9 - - - - ENE 43 67 23 36 993.1 993.1 3.0
29/06:30pm 13.2 - - - - ENE 46 85 25 46 992.7 992.7 3.0
29/06:29pm 13.0 - - - - ENE 44 85 24 46 992.7 992.7 3.0
29/06:06pm 12.8 - - - - ENE 41 61 22 33 994.2 994.2 2.0
29/06:00pm 12.8 - - - - ENE 41 57 22 31 994.1 994.1 1.8
29/05:30pm 13.4 - - - - NE 32 56 17 30 994.5 994.5 0.2
29/05:02pm 13.8 - - - - ENE 41 82 22 44 993.4 993.4 0.0
29/05:00pm 13.6 - - - - ENE 35 61 19 33 994.1 994.1 0.0
29/04:42pm 14.0 - - - - ENE 46 67 25 36 994.1 994.1 0.0
29/04:41pm 14.1 - - - - ENE 46 67 25 36 994.0 994.0 0.0
29/04:32pm 14.2 - - - - ENE 50 82 27 44 993.5 993.5 0.0
29/04:30pm 14.2 - - - - ENE 50 82 27 44 993.1 993.1 0.0
29/04:28pm 13.9 - - - - ENE 48 78 26 42 993.8 993.8 0.0
29/04:27pm 14.0 - - - - ENE 48 87 26 47 994.0 994.0 0.0
29/04:00pm 14.0 - - - - ENE 56 85 30 46 993.2 993.2 0.0
29/03:30pm 14.1 - - - - ENE 50 74 27 40 993.7 993.7 0.0
29/03:00pm 14.4 - - - - NE 56 87 30 47 993.3 993.3 0.0
29/02:38pm 14.3 - - - - ENE 57 95 31 51 993.2 993.2 0.0
29/02:37pm 14.3 - - - - ENE 57 95 31 51 993.3 993.3 0.0
29/02:35pm 14.4 - - - - ENE 57 95 31 51 993.1 993.1 0.0
29/02:34pm 14.4 - - - - ENE 57 95 31 51 991.9 991.9 0.0
29/02:30pm 14.3 - - - - ENE 54 83 29 45 992.9 992.9 0.0
29/02:29pm 14.3 - - - - ENE 54 83 29 45 993.7 993.7 0.0
29/02:00pm 14.5 - - - - ENE 61 91 33 49 993.0 993.0 0.0
29/01:30pm 14.4 - - - - ENE 57 87 31 47 993.7 993.7 0.0
29/01:00pm 14.5 - - - - ENE 57 93 31 50 994.1 994.1 0.0
29/12:38pm 14.5 - - - - ENE 59 80 32 43 994.1 994.1 0.0
29/12:30pm 14.6 - - - - NE 61 80 33 43 993.6 993.6 0.0
29/12:00pm 14.8 - - - - ENE 63 89 34 48 994.6 994.6 0.0
29/11:30am 14.8 - - - - NE 54 85 29 46 995.5 995.5 0.0
29/11:00am 14.7 - - - - NE 52 85 28 46 995.5 995.5 0.0
29/10:42am 15.0 - - - - NE 52 72 28 39 996.2 996.2 0.0
29/10:30am 14.7 - - - - NE 54 72 29 39 996.2 996.2 0.0
29/10:00am 14.5 - - - - NE 59 78 32 42 996.2 996.2 0.0
29/09:30am 14.4 - - - - NE 59 83 32 45 996.3 996.3 0.0
29/09:03am 14.8 - - - - NE 57 78 31 42 997.2 997.2 0.0
29/09:00am 14.7 - - - - NE 59 78 32 42 996.9 996.9 0.4
29/08:30am 14.9 - - - - NE 54 76 29 41 997.3 997.3 0.4
29/08:01am 14.8 - - - - NE 46 69 25 37 997.3 997.3 0.4
29/08:00am 14.7 - - - - NE 46 63 25 34 997.9 998.0 0.4
29/07:36am 14.5 - - - - NE 48 69 26 37 998.1 998.2 0.4
29/07:30am 14.5 - - - - NE 48 65 26 35 997.9 998.0 0.4
29/07:00am 14.1 - - - - NE 44 67 24 36 998.3 998.4 0.4
29/06:37am 13.9 - - - - NE 48 67 26 36 998.2 998.3 0.4
29/06:30am 13.8 - - - - NE 48 63 26 34 998.4 998.5 0.4
29/06:00am 13.9 - - - - NNE 44 65 24 35 998.7 998.8 0.4
29/05:31am 13.6 - - - - NNE 48 67 26 36 998.9 999.0 0.4
29/05:30am 13.7 - - - - NNE 50 67 27 36 998.9 999.0 0.4
29/05:03am 13.4 - - - - NNE 41 63 22 34 999.0 999.1 0.4
29/05:00am 13.3 - - - - NNE 41 54 22 29 999.2 999.2 0.4
29/04:30am 13.4 - - - - NNE 41 54 22 29 999.9 999.9 0.2
29/04:00am 13.3 - - - - NE 32 43 17 23 1000.2 1000.2 0.0
29/03:30am 12.9 - - - - NE 24 37 13 20 1000.9 1000.9 0.0
29/03:00am 12.2 - - - - NNE 15 24 8 13 1001.7 1001.7 0.0
29/02:30am 12.2 - - - - NNE 17 26 9 14 1002.2 1002.2 0.0
29/02:00am 12.2 - - - - NNE 26 33 14 18 1003.0 1003.0 0.0
29/01:30am 12.0 - - - - NNE 26 30 14 16 1003.4 1003.4 0.0
29/01:00am 12.1 - - - - NNE 26 33 14 18 1003.5 1003.5 0.0
29/12:30am 12.3 - - - - NNE 30 35 16 19 1003.6 1003.6 0.0
29/12:00am 12.2 - - - - N 32 37 17 20 1003.8 1003.8 0.0
 
Date/Time
EST
Temp
°C
App
Temp
°C
Dew
Point
°C
Rel
Hum
%
Delta-T
°C
Wind Press
QNH
hPa
Press
MSL
hPa
Rain since
9am
mm
Dir  Spd
km/h
Gust
km/h
Spd
kts
Gust
kts
28/11:30pm 11.9 - - - - N 30 35 16 19 1004.0 1004.0 0.0
28/11:00pm 12.2 - - - - N 24 28 13 15 1004.5 1004.5 0.0
28/10:30pm 12.4 - - - - NNE 24 30 13 16 1004.5 1004.5 0.0
28/10:00pm 12.6 - - - - NNE 20 24 11 13 1004.7 1004.7 0.0
28/09:30pm 12.7 - - - - NNE 19 24 10 13 1004.9 1004.9 0.0
28/09:00pm 12.9 - - - - NE 20 32 11 17 1005.3 1005.3 0.0
28/08:30pm 12.5 - - - - NE 17 22 9 12 1005.7 1005.7 0.0
28/08:00pm 12.5 - - - - NE 15 22 8 12 1005.9 1005.9 0.0
28/07:30pm 12.0 - - - - ENE 11 17 6 9 1006.0 1006.0 0.0
28/07:00pm 11.7 - - - - ENE 11 13 6 7 1006.0 1006.0 0.0
28/06:30pm 11.8 - - - - NE 13 20 7 11 1006.0 1006.0 0.0
28/06:00pm 12.6 - - - - NE 17 24 9 13 1006.1 1006.1 0.0
28/05:30pm 12.7 - - - - ENE 17 20 9 11 1005.8 1005.8 0.0
28/05:00pm 12.6 - - - - ENE 17 22 9 12 1005.7 1005.7 0.0
28/04:30pm 12.7 - - - - ENE 20 30 11 16 1005.7 1005.7 0.0
28/04:00pm 13.0 - - - - ENE 19 24 10 13 1006.0 1006.0 0.0
28/03:30pm 12.9 - - - - E 19 24 10 13 1006.3 1006.3 0.0
28/03:00pm 13.0 - - - - ENE 17 19 9 10 1006.6 1006.6 0.0

Other Formats:

Comma delimited format used in spreadsheet applications
http://www.bom.gov.au/fwo/IDT60801/IDT60801.95988.axf

JavaScript Object Notation format (JSON) in row-major order
http://www.bom.gov.au/fwo/IDT60801/IDT60801.95988.json